sensor_id;sensor_type;location;lat;lon;timestamp;temperature;humidity
60860;DHT22;46694;54.382;9.708;2023-06-22T00:01:19;17.60;99.90
60860;DHT22;46694;54.382;9.708;2023-06-22T00:03:58;17.60;99.90
60860;DHT22;46694;54.382;9.708;2023-06-22T00:06:38;17.60;99.90
60860;DHT22;46694;54.382;9.708;2023-06-22T00:09:18;17.60;99.90
60860;DHT22;46694;54.382;9.708;2023-06-22T00:11:57;17.50;99.90
60860;DHT22;46694;54.382;9.708;2023-06-22T00:14:37;17.50;99.90
60860;DHT22;46694;54.382;9.708;2023-06-22T00:17:17;17.40;99.90
60860;DHT22;46694;54.382;9.708;2023-06-22T00:19:56;17.40;99.90
60860;DHT22;46694;54.382;9.708;2023-06-22T00:22:39;17.40;99.90
60860;DHT22;46694;54.382;9.708;2023-06-22T00:25:19;17.30;99.90
60860;DHT22;46694;54.382;9.708;2023-06-22T00:27:58;17.30;99.90
60860;DHT22;46694;54.382;9.708;2023-06-22T00:30:38;17.30;99.90
60860;DHT22;46694;54.382;9.708;2023-06-22T00:33:17;17.30;99.90
60860;DHT22;46694;54.382;9.708;2023-06-22T00:35:57;17.20;99.90
60860;DHT22;46694;54.382;9.708;2023-06-22T00:38:36;17.20;99.90
60860;DHT22;46694;54.382;9.708;2023-06-22T00:41:19;17.20;99.90
60860;DHT22;46694;54.382;9.708;2023-06-22T00:43:58;17.20;99.90
60860;DHT22;46694;54.382;9.708;2023-06-22T00:46:38;17.10;99.90
60860;DHT22;46694;54.382;9.708;2023-06-22T00:49:18;17.10;99.90
60860;DHT22;46694;54.382;9.708;2023-06-22T00:51:57;17.10;99.90
60860;DHT22;46694;54.382;9.708;2023-06-22T00:54:37;17.10;99.90
60860;DHT22;46694;54.382;9.708;2023-06-22T00:57:17;17.10;99.90
60860;DHT22;46694;54.382;9.708;2023-06-22T00:59:57;17.10;99.90
60860;DHT22;46694;54.382;9.708;2023-06-22T01:02:37;17.10;99.90
60860;DHT22;46694;54.382;9.708;2023-06-22T01:05:19;17.10;99.90
60860;DHT22;46694;54.382;9.708;2023-06-22T01:08:12;17.00;99.90
60860;DHT22;46694;54.382;9.708;2023-06-22T01:11:46;17.00;99.90
60860;DHT22;46694;54.382;9.708;2023-06-22T01:14:49;17.00;99.90
60860;DHT22;46694;54.382;9.708;2023-06-22T01:17:32;17.00;99.90
60860;DHT22;46694;54.382;9.708;2023-06-22T01:20:12;16.90;99.90
60860;DHT22;46694;54.382;9.708;2023-06-22T01:23:05;16.90;99.90
60860;DHT22;46694;54.382;9.708;2023-06-22T01:26:04;16.90;99.90
60860;DHT22;46694;54.382;9.708;2023-06-22T01:28:52;16.90;99.90
60860;DHT22;46694;54.382;9.708;2023-06-22T01:31:34;16.90;99.90
60860;DHT22;46694;54.382;9.708;2023-06-22T01:34:15;16.80;99.90
60860;DHT22;46694;54.382;9.708;2023-06-22T01:36:56;16.80;99.90
60860;DHT22;46694;54.382;9.708;2023-06-22T01:39:37;16.80;99.90
60860;DHT22;46694;54.382;9.708;2023-06-22T01:42:17;16.70;99.90
60860;DHT22;46694;54.382;9.708;2023-06-22T01:44:57;16.70;99.90
60860;DHT22;46694;54.382;9.708;2023-06-22T01:47:38;16.70;99.90
60860;DHT22;46694;54.382;9.708;2023-06-22T01:50:19;16.60;99.90
60860;DHT22;46694;54.382;9.708;2023-06-22T01:52:58;16.60;99.90
60860;DHT22;46694;54.382;9.708;2023-06-22T01:55:38;16.60;99.90
60860;DHT22;46694;54.382;9.708;2023-06-22T01:58:21;16.60;99.90
60860;DHT22;46694;54.382;9.708;2023-06-22T02:01:26;16.50;99.90
60860;DHT22;46694;54.382;9.708;2023-06-22T02:04:24;16.50;99.90
60860;DHT22;46694;54.382;9.708;2023-06-22T02:07:11;16.40;99.90
60860;DHT22;46694;54.382;9.708;2023-06-22T02:09:55;16.40;99.90
60860;DHT22;46694;54.382;9.708;2023-06-22T02:12:36;16.30;99.90
60860;DHT22;46694;54.382;9.708;2023-06-22T02:15:16;16.30;99.90
60860;DHT22;46694;54.382;9.708;2023-06-22T02:17:56;16.30;99.90
60860;DHT22;46694;54.382;9.708;2023-06-22T02:20:39;16.30;99.90
60860;DHT22;46694;54.382;9.708;2023-06-22T02:23:19;16.30;99.90
60860;DHT22;46694;54.382;9.708;2023-06-22T02:25:59;16.30;99.90
60860;DHT22;46694;54.382;9.708;2023-06-22T02:28:38;16.30;99.90
60860;DHT22;46694;54.382;9.708;2023-06-22T02:31:18;16.30;99.90
60860;DHT22;46694;54.382;9.708;2023-06-22T02:33:59;16.20;99.90
60860;DHT22;46694;54.382;9.708;2023-06-22T02:36:39;16.20;99.90
60860;DHT22;46694;54.382;9.708;2023-06-22T02:39:23;16.10;99.90
60860;DHT22;46694;54.382;9.708;2023-06-22T02:42:03;16.10;99.90
60860;DHT22;46694;54.382;9.708;2023-06-22T02:44:43;16.10;99.90
60860;DHT22;46694;54.382;9.708;2023-06-22T02:47:22;16.10;99.90
60860;DHT22;46694;54.382;9.708;2023-06-22T02:50:02;16.00;99.90
60860;DHT22;46694;54.382;9.708;2023-06-22T02:52:42;16.00;99.90
60860;DHT22;46694;54.382;9.708;2023-06-22T02:55:21;16.00;99.90
60860;DHT22;46694;54.382;9.708;2023-06-22T02:58:02;16.00;99.90
60860;DHT22;46694;54.382;9.708;2023-06-22T03:00:44;16.00;99.90
60860;DHT22;46694;54.382;9.708;2023-06-22T03:03:23;16.00;99.90
60860;DHT22;46694;54.382;9.708;2023-06-22T03:06:05;16.00;99.90
60860;DHT22;46694;54.382;9.708;2023-06-22T03:08:44;16.00;99.90
60860;DHT22;46694;54.382;9.708;2023-06-22T03:15:26;16.10;99.90
60860;DHT22;46694;54.382;9.708;2023-06-22T03:18:08;16.00;99.90
60860;DHT22;46694;54.382;9.708;2023-06-22T03:20:47;16.10;99.90
60860;DHT22;46694;54.382;9.708;2023-06-22T03:23:27;16.10;99.90
60860;DHT22;46694;54.382;9.708;2023-06-22T03:26:08;16.10;99.90
60860;DHT22;46694;54.382;9.708;2023-06-22T03:28:48;16.10;99.90
60860;DHT22;46694;54.382;9.708;2023-06-22T03:31:28;16.10;99.90
60860;DHT22;46694;54.382;9.708;2023-06-22T03:34:07;16.20;99.90
60860;DHT22;46694;54.382;9.708;2023-06-22T03:36:47;16.20;99.90
60860;DHT22;46694;54.382;9.708;2023-06-22T03:39:26;16.30;99.90
60860;DHT22;46694;54.382;9.708;2023-06-22T03:42:06;16.30;99.90
60860;DHT22;46694;54.382;9.708;2023-06-22T03:44:47;16.40;99.90
60860;DHT22;46694;54.382;9.708;2023-06-22T03:47:26;16.40;99.90
60860;DHT22;46694;54.382;9.708;2023-06-22T03:50:06;16.50;99.90
60860;DHT22;46694;54.382;9.708;2023-06-22T03:52:46;16.60;99.90
60860;DHT22;46694;54.382;9.708;2023-06-22T03:55:26;16.70;99.90
60860;DHT22;46694;54.382;9.708;2023-06-22T03:58:05;16.80;99.90
60860;DHT22;46694;54.382;9.708;2023-06-22T04:00:49;16.80;99.90
60860;DHT22;46694;54.382;9.708;2023-06-22T04:03:29;17.00;99.90
60860;DHT22;46694;54.382;9.708;2023-06-22T04:06:09;17.10;99.90
60860;DHT22;46694;54.382;9.708;2023-06-22T04:08:49;17.20;99.90
60860;DHT22;46694;54.382;9.708;2023-06-22T04:11:30;17.20;99.90
60860;DHT22;46694;54.382;9.708;2023-06-22T04:14:09;17.30;99.90
60860;DHT22;46694;54.382;9.708;2023-06-22T04:16:49;17.40;99.90
60860;DHT22;46694;54.382;9.708;2023-06-22T04:19:29;17.50;99.90
60860;DHT22;46694;54.382;9.708;2023-06-22T04:22:08;17.60;99.90
60860;DHT22;46694;54.382;9.708;2023-06-22T04:24:48;17.70;99.90
60860;DHT22;46694;54.382;9.708;2023-06-22T04:27:32;17.90;99.90
60860;DHT22;46694;54.382;9.708;2023-06-22T04:30:11;18.10;99.90
60860;DHT22;46694;54.382;9.708;2023-06-22T04:32:55;18.30;99.90
60860;DHT22;46694;54.382;9.708;2023-06-22T04:35:37;18.50;99.90
60860;DHT22;46694;54.382;9.708;2023-06-22T04:38:20;18.70;99.90
60860;DHT22;46694;54.382;9.708;2023-06-22T04:41:00;18.90;99.90
60860;DHT22;46694;54.382;9.708;2023-06-22T04:43:42;19.00;99.90
60860;DHT22;46694;54.382;9.708;2023-06-22T04:46:22;19.10;99.90
60860;DHT22;46694;54.382;9.708;2023-06-22T04:49:01;19.20;99.90
60860;DHT22;46694;54.382;9.708;2023-06-22T04:51:42;19.40;99.90
60860;DHT22;46694;54.382;9.708;2023-06-22T04:54:21;19.60;99.90
60860;DHT22;46694;54.382;9.708;2023-06-22T04:57:02;19.70;99.90
60860;DHT22;46694;54.382;9.708;2023-06-22T04:59:43;19.90;99.90
60860;DHT22;46694;54.382;9.708;2023-06-22T05:02:23;20.00;99.90
60860;DHT22;46694;54.382;9.708;2023-06-22T05:05:07;20.10;99.90
60860;DHT22;46694;54.382;9.708;2023-06-22T05:07:47;20.40;99.90
60860;DHT22;46694;54.382;9.708;2023-06-22T05:10:30;20.70;99.90
60860;DHT22;46694;54.382;9.708;2023-06-22T05:13:09;21.00;99.90
60860;DHT22;46694;54.382;9.708;2023-06-22T05:15:49;21.30;99.90
60860;DHT22;46694;54.382;9.708;2023-06-22T05:18:32;21.60;99.90
60860;DHT22;46694;54.382;9.708;2023-06-22T05:21:11;21.90;99.90
60860;DHT22;46694;54.382;9.708;2023-06-22T05:23:51;22.00;99.90
60860;DHT22;46694;54.382;9.708;2023-06-22T05:26:35;22.20;99.90
60860;DHT22;46694;54.382;9.708;2023-06-22T05:29:14;22.40;99.90
60860;DHT22;46694;54.382;9.708;2023-06-22T05:31:54;22.70;99.90
60860;DHT22;46694;54.382;9.708;2023-06-22T05:34:34;23.00;99.90
60860;DHT22;46694;54.382;9.708;2023-06-22T05:37:13;23.30;99.90
60860;DHT22;46694;54.382;9.708;2023-06-22T05:39:53;23.70;99.90
60860;DHT22;46694;54.382;9.708;2023-06-22T05:42:34;24.00;99.90
60860;DHT22;46694;54.382;9.708;2023-06-22T05:45:13;24.30;99.90
60860;DHT22;46694;54.382;9.708;2023-06-22T05:47:53;24.50;99.90
60860;DHT22;46694;54.382;9.708;2023-06-22T05:50:32;24.70;99.90
60860;DHT22;46694;54.382;9.708;2023-06-22T05:53:12;25.00;99.90
60860;DHT22;46694;54.382;9.708;2023-06-22T05:55:51;25.30;99.90
60860;DHT22;46694;54.382;9.708;2023-06-22T05:58:31;25.50;99.90
60860;DHT22;46694;54.382;9.708;2023-06-22T06:01:11;25.50;99.90
60860;DHT22;46694;54.382;9.708;2023-06-22T06:03:50;25.60;99.90
60860;DHT22;46694;54.382;9.708;2023-06-22T06:06:31;25.80;99.90
60860;DHT22;46694;54.382;9.708;2023-06-22T06:09:11;25.90;99.90
60860;DHT22;46694;54.382;9.708;2023-06-22T06:11:50;26.10;99.90
60860;DHT22;46694;54.382;9.708;2023-06-22T06:14:30;26.50;99.90
60860;DHT22;46694;54.382;9.708;2023-06-22T06:17:10;26.90;99.90
60860;DHT22;46694;54.382;9.708;2023-06-22T06:19:49;27.40;99.90
60860;DHT22;46694;54.382;9.708;2023-06-22T06:22:28;27.50;99.90
60860;DHT22;46694;54.382;9.708;2023-06-22T06:25:08;27.70;99.90
60860;DHT22;46694;54.382;9.708;2023-06-22T06:27:50;28.10;99.90
60860;DHT22;46694;54.382;9.708;2023-06-22T06:30:30;28.50;99.90
60860;DHT22;46694;54.382;9.708;2023-06-22T06:33:10;28.70;99.90
60860;DHT22;46694;54.382;9.708;2023-06-22T06:35:49;28.80;99.90
60860;DHT22;46694;54.382;9.708;2023-06-22T06:38:32;29.00;99.90
60860;DHT22;46694;54.382;9.708;2023-06-22T06:41:11;29.10;99.90
60860;DHT22;46694;54.382;9.708;2023-06-22T06:43:51;29.20;99.90
60860;DHT22;46694;54.382;9.708;2023-06-22T06:46:31;29.30;99.90
60860;DHT22;46694;54.382;9.708;2023-06-22T06:49:11;29.50;99.90
60860;DHT22;46694;54.382;9.708;2023-06-22T06:51:50;29.70;99.90
60860;DHT22;46694;54.382;9.708;2023-06-22T06:54:30;30.00;99.90
60860;DHT22;46694;54.382;9.708;2023-06-22T06:57:09;30.20;99.90
60860;DHT22;46694;54.382;9.708;2023-06-22T06:59:49;30.40;99.90
60860;DHT22;46694;54.382;9.708;2023-06-22T07:02:29;30.70;99.90
60860;DHT22;46694;54.382;9.708;2023-06-22T07:05:12;30.80;99.50
60860;DHT22;46694;54.382;9.708;2023-06-22T07:07:52;31.00;98.70
60860;DHT22;46694;54.382;9.708;2023-06-22T07:10:32;31.10;98.10
60860;DHT22;46694;54.382;9.708;2023-06-22T07:13:12;31.30;97.70
60860;DHT22;46694;54.382;9.708;2023-06-22T07:15:51;31.50;97.00
60860;DHT22;46694;54.382;9.708;2023-06-22T07:18:31;31.70;96.40
60860;DHT22;46694;54.382;9.708;2023-06-22T07:21:10;31.70;96.20
60860;DHT22;46694;54.382;9.708;2023-06-22T07:23:50;32.00;95.60
60860;DHT22;46694;54.382;9.708;2023-06-22T07:26:29;32.20;95.10
60860;DHT22;46694;54.382;9.708;2023-06-22T07:29:09;32.40;94.20
60860;DHT22;46694;54.382;9.708;2023-06-22T07:31:50;32.70;93.30
60860;DHT22;46694;54.382;9.708;2023-06-22T07:34:35;32.90;92.90
60860;DHT22;46694;54.382;9.708;2023-06-22T07:37:14;33.00;92.40
60860;DHT22;46694;54.382;9.708;2023-06-22T07:39:54;33.00;92.10
60860;DHT22;46694;54.382;9.708;2023-06-22T07:42:37;33.10;91.20
60860;DHT22;46694;54.382;9.708;2023-06-22T07:45:17;33.00;90.50
60860;DHT22;46694;54.382;9.708;2023-06-22T07:47:56;32.50;88.10
60860;DHT22;46694;54.382;9.708;2023-06-22T07:50:36;32.00;88.80
60860;DHT22;46694;54.382;9.708;2023-06-22T07:53:15;32.10;89.60
60860;DHT22;46694;54.382;9.708;2023-06-22T07:55:55;32.40;89.40
60860;DHT22;46694;54.382;9.708;2023-06-22T07:58:34;32.80;89.00
60860;DHT22;46694;54.382;9.708;2023-06-22T08:01:14;33.20;88.40
60860;DHT22;46694;54.382;9.708;2023-06-22T08:03:54;33.50;86.90
60860;DHT22;46694;54.382;9.708;2023-06-22T08:06:33;33.80;85.40
60860;DHT22;46694;54.382;9.708;2023-06-22T08:09:13;34.10;82.90
60860;DHT22;46694;54.382;9.708;2023-06-22T08:11:53;34.20;81.30
60860;DHT22;46694;54.382;9.708;2023-06-22T08:14:37;34.30;80.10
60860;DHT22;46694;54.382;9.708;2023-06-22T08:17:17;34.50;79.50
60860;DHT22;46694;54.382;9.708;2023-06-22T08:19:57;34.70;79.30
60860;DHT22;46694;54.382;9.708;2023-06-22T08:22:36;35.00;77.90
60860;DHT22;46694;54.382;9.708;2023-06-22T08:25:16;35.00;75.10
60860;DHT22;46694;54.382;9.708;2023-06-22T08:27:56;34.70;73.50
60860;DHT22;46694;54.382;9.708;2023-06-22T08:30:35;34.60;73.50
60860;DHT22;46694;54.382;9.708;2023-06-22T08:33:14;34.70;72.90
60860;DHT22;46694;54.382;9.708;2023-06-22T08:35:55;35.00;71.60
60860;DHT22;46694;54.382;9.708;2023-06-22T08:38:34;35.40;71.00
60860;DHT22;46694;54.382;9.708;2023-06-22T08:41:14;35.80;69.90
60860;DHT22;46694;54.382;9.708;2023-06-22T08:43:53;36.00;68.50
60860;DHT22;46694;54.382;9.708;2023-06-22T08:46:33;36.00;66.00
60860;DHT22;46694;54.382;9.708;2023-06-22T08:49:13;35.90;64.70
60860;DHT22;46694;54.382;9.708;2023-06-22T08:51:52;35.90;64.50
60860;DHT22;46694;54.382;9.708;2023-06-22T08:54:34;36.00;64.20
60860;DHT22;46694;54.382;9.708;2023-06-22T08:57:14;36.00;63.30
60860;DHT22;46694;54.382;9.708;2023-06-22T08:59:55;36.00;63.30
60860;DHT22;46694;54.382;9.708;2023-06-22T09:02:37;35.90;62.30
60860;DHT22;46694;54.382;9.708;2023-06-22T09:05:17;35.70;62.40
60860;DHT22;46694;54.382;9.708;2023-06-22T09:07:57;35.60;61.70
60860;DHT22;46694;54.382;9.708;2023-06-22T09:10:37;35.50;60.70
60860;DHT22;46694;54.382;9.708;2023-06-22T09:13:16;35.40;59.60
60860;DHT22;46694;54.382;9.708;2023-06-22T09:15:56;35.40;59.40
60860;DHT22;46694;54.382;9.708;2023-06-22T09:18:35;35.40;59.50
60860;DHT22;46694;54.382;9.708;2023-06-22T09:21:15;35.30;59.20
60860;DHT22;46694;54.382;9.708;2023-06-22T09:23:55;35.20;58.20
60860;DHT22;46694;54.382;9.708;2023-06-22T09:26:34;35.20;57.40
60860;DHT22;46694;54.382;9.708;2023-06-22T09:29:14;35.00;57.30
60860;DHT22;46694;54.382;9.708;2023-06-22T09:31:53;35.00;57.30
60860;DHT22;46694;54.382;9.708;2023-06-22T09:34:33;35.00;57.30
60860;DHT22;46694;54.382;9.708;2023-06-22T09:37:13;35.20;57.60
60860;DHT22;46694;54.382;9.708;2023-06-22T09:39:53;35.50;56.60
60860;DHT22;46694;54.382;9.708;2023-06-22T09:42:32;35.40;55.70
60860;DHT22;46694;54.382;9.708;2023-06-22T09:45:12;35.30;55.40
60860;DHT22;46694;54.382;9.708;2023-06-22T09:47:52;35.20;55.10
60860;DHT22;46694;54.382;9.708;2023-06-22T09:50:31;35.20;55.00
60860;DHT22;46694;54.382;9.708;2023-06-22T09:53:11;35.10;55.00
60860;DHT22;46694;54.382;9.708;2023-06-22T09:55:50;35.40;55.10
60860;DHT22;46694;54.382;9.708;2023-06-22T09:58:30;35.70;54.10
60860;DHT22;46694;54.382;9.708;2023-06-22T10:01:10;35.70;53.70
60860;DHT22;46694;54.382;9.708;2023-06-22T10:03:53;35.60;53.40
60860;DHT22;46694;54.382;9.708;2023-06-22T10:06:35;35.40;53.40
60860;DHT22;46694;54.382;9.708;2023-06-22T10:09:15;35.20;53.80
60860;DHT22;46694;54.382;9.708;2023-06-22T10:11:54;34.90;53.80
60860;DHT22;46694;54.382;9.708;2023-06-22T10:14:34;34.60;53.90
60860;DHT22;46694;54.382;9.708;2023-06-22T10:17:13;34.50;54.20
60860;DHT22;46694;54.382;9.708;2023-06-22T10:19:53;34.10;54.40
60860;DHT22;46694;54.382;9.708;2023-06-22T10:22:33;33.90;54.80
60860;DHT22;46694;54.382;9.708;2023-06-22T10:25:12;33.90;54.90
60860;DHT22;46694;54.382;9.708;2023-06-22T10:27:52;33.80;54.90
60860;DHT22;46694;54.382;9.708;2023-06-22T10:30:32;33.70;55.10
60860;DHT22;46694;54.382;9.708;2023-06-22T10:33:12;33.90;55.30
60860;DHT22;46694;54.382;9.708;2023-06-22T10:35:51;33.90;55.00
60860;DHT22;46694;54.382;9.708;2023-06-22T10:38:31;34.00;55.00
60860;DHT22;46694;54.382;9.708;2023-06-22T10:41:11;34.20;54.90
60860;DHT22;46694;54.382;9.708;2023-06-22T10:43:50;34.50;54.50
60860;DHT22;46694;54.382;9.708;2023-06-22T10:46:30;34.40;54.30
60860;DHT22;46694;54.382;9.708;2023-06-22T10:49:09;34.70;54.40
60860;DHT22;46694;54.382;9.708;2023-06-22T10:51:49;34.90;53.90
60860;DHT22;46694;54.382;9.708;2023-06-22T10:54:29;35.00;53.00
60860;DHT22;46694;54.382;9.708;2023-06-22T10:57:08;34.50;52.90
60860;DHT22;46694;54.382;9.708;2023-06-22T10:59:48;34.00;53.80
60860;DHT22;46694;54.382;9.708;2023-06-22T11:02:28;34.10;53.90
60860;DHT22;46694;54.382;9.708;2023-06-22T11:05:07;34.20;53.50
60860;DHT22;46694;54.382;9.708;2023-06-22T11:07:47;34.40;53.70
60860;DHT22;46694;54.382;9.708;2023-06-22T11:10:28;34.20;53.40
60860;DHT22;46694;54.382;9.708;2023-06-22T11:13:07;33.80;53.80
60860;DHT22;46694;54.382;9.708;2023-06-22T11:15:49;33.50;53.50
60860;DHT22;46694;54.382;9.708;2023-06-22T11:18:28;33.30;54.20
60860;DHT22;46694;54.382;9.708;2023-06-22T11:21:08;33.20;54.50
60860;DHT22;46694;54.382;9.708;2023-06-22T11:23:47;33.00;54.60
60860;DHT22;46694;54.382;9.708;2023-06-22T11:26:27;32.80;55.00
60860;DHT22;46694;54.382;9.708;2023-06-22T11:29:07;32.70;55.00
60860;DHT22;46694;54.382;9.708;2023-06-22T11:31:47;32.90;54.60
60860;DHT22;46694;54.382;9.708;2023-06-22T11:34:26;33.10;54.20
60860;DHT22;46694;54.382;9.708;2023-06-22T11:37:07;33.10;53.80
60860;DHT22;46694;54.382;9.708;2023-06-22T11:39:47;32.90;54.00
60860;DHT22;46694;54.382;9.708;2023-06-22T11:42:26;32.90;53.90
60860;DHT22;46694;54.382;9.708;2023-06-22T11:45:07;33.00;54.00
60860;DHT22;46694;54.382;9.708;2023-06-22T11:47:47;33.10;53.90
60860;DHT22;46694;54.382;9.708;2023-06-22T11:50:27;32.90;54.10
60860;DHT22;46694;54.382;9.708;2023-06-22T11:53:09;32.90;53.90
60860;DHT22;46694;54.382;9.708;2023-06-22T11:55:48;32.80;53.70
60860;DHT22;46694;54.382;9.708;2023-06-22T11:58:28;32.80;53.70
60860;DHT22;46694;54.382;9.708;2023-06-22T12:01:07;32.70;53.80
60860;DHT22;46694;54.382;9.708;2023-06-22T12:03:47;32.40;54.30
60860;DHT22;46694;54.382;9.708;2023-06-22T12:06:27;32.10;55.10
60860;DHT22;46694;54.382;9.708;2023-06-22T12:09:07;32.00;55.20
60860;DHT22;46694;54.382;9.708;2023-06-22T12:11:46;32.00;54.80
60860;DHT22;46694;54.382;9.708;2023-06-22T12:14:26;32.20;54.80
60860;DHT22;46694;54.382;9.708;2023-06-22T12:21:07;32.20;53.90
60860;DHT22;46694;54.382;9.708;2023-06-22T12:23:47;32.00;54.20
60860;DHT22;46694;54.382;9.708;2023-06-22T12:26:26;31.60;54.50
60860;DHT22;46694;54.382;9.708;2023-06-22T12:29:06;31.30;55.10
60860;DHT22;46694;54.382;9.708;2023-06-22T12:31:45;30.90;55.50
60860;DHT22;46694;54.382;9.708;2023-06-22T12:34:25;30.50;56.10
60860;DHT22;46694;54.382;9.708;2023-06-22T12:37:05;30.40;56.60
60860;DHT22;46694;54.382;9.708;2023-06-22T12:39:45;30.40;56.70
60860;DHT22;46694;54.382;9.708;2023-06-22T12:42:24;30.50;56.60
60860;DHT22;46694;54.382;9.708;2023-06-22T12:45:05;30.50;57.20
60860;DHT22;46694;54.382;9.708;2023-06-22T12:47:45;30.90;57.60
60860;DHT22;46694;54.382;9.708;2023-06-22T12:50:25;31.40;57.30
60860;DHT22;46694;54.382;9.708;2023-06-22T12:53:04;31.70;56.90
60860;DHT22;46694;54.382;9.708;2023-06-22T12:55:45;32.10;56.80
60860;DHT22;46694;54.382;9.708;2023-06-22T12:58:25;32.50;56.50
60860;DHT22;46694;54.382;9.708;2023-06-22T13:01:04;32.70;56.40
60860;DHT22;46694;54.382;9.708;2023-06-22T13:03:43;32.90;55.00
60860;DHT22;46694;54.382;9.708;2023-06-22T13:06:23;32.90;54.50
60860;DHT22;46694;54.382;9.708;2023-06-22T13:09:03;32.50;54.70
60860;DHT22;46694;54.382;9.708;2023-06-22T13:11:44;32.00;54.80
60860;DHT22;46694;54.382;9.708;2023-06-22T13:14:23;31.60;55.20
60860;DHT22;46694;54.382;9.708;2023-06-22T13:17:03;31.40;55.60
60860;DHT22;46694;54.382;9.708;2023-06-22T13:19:42;31.30;55.90
60860;DHT22;46694;54.382;9.708;2023-06-22T13:22:28;30.90;56.10
60860;DHT22;46694;54.382;9.708;2023-06-22T13:25:11;30.20;56.60
60860;DHT22;46694;54.382;9.708;2023-06-22T13:27:51;29.80;57.40
60860;DHT22;46694;54.382;9.708;2023-06-22T13:30:31;29.50;57.90
60860;DHT22;46694;54.382;9.708;2023-06-22T13:33:11;29.40;58.30
60860;DHT22;46694;54.382;9.708;2023-06-22T13:35:50;29.30;58.40
60860;DHT22;46694;54.382;9.708;2023-06-22T13:38:30;29.10;58.80
60860;DHT22;46694;54.382;9.708;2023-06-22T13:41:11;29.10;59.20
60860;DHT22;46694;54.382;9.708;2023-06-22T13:43:50;29.10;59.30
60860;DHT22;46694;54.382;9.708;2023-06-22T13:46:30;29.10;59.60
60860;DHT22;46694;54.382;9.708;2023-06-22T13:49:09;29.20;59.90
60860;DHT22;46694;54.382;9.708;2023-06-22T13:51:49;29.40;60.10
60860;DHT22;46694;54.382;9.708;2023-06-22T13:54:29;29.60;59.50
60860;DHT22;46694;54.382;9.708;2023-06-22T13:57:08;29.60;58.90
60860;DHT22;46694;54.382;9.708;2023-06-22T13:59:48;29.50;59.20
60860;DHT22;46694;54.382;9.708;2023-06-22T14:02:27;29.30;60.10
60860;DHT22;46694;54.382;9.708;2023-06-22T14:05:08;29.20;61.00
60860;DHT22;46694;54.382;9.708;2023-06-22T14:07:47;29.10;62.00
60860;DHT22;46694;54.382;9.708;2023-06-22T14:10:27;29.20;62.50
60860;DHT22;46694;54.382;9.708;2023-06-22T14:13:07;29.30;62.50
60860;DHT22;46694;54.382;9.708;2023-06-22T14:15:46;29.40;62.20
60860;DHT22;46694;54.382;9.708;2023-06-22T14:18:27;29.40;62.10
60860;DHT22;46694;54.382;9.708;2023-06-22T14:21:07;29.50;62.30
60860;DHT22;46694;54.382;9.708;2023-06-22T14:23:47;29.50;62.30
60860;DHT22;46694;54.382;9.708;2023-06-22T14:26:28;29.40;62.50
60860;DHT22;46694;54.382;9.708;2023-06-22T14:29:07;29.20;63.70
60860;DHT22;46694;54.382;9.708;2023-06-22T14:31:48;29.10;63.20
60860;DHT22;46694;54.382;9.708;2023-06-22T14:34:28;29.10;63.60
60860;DHT22;46694;54.382;9.708;2023-06-22T14:37:08;29.00;63.50
60860;DHT22;46694;54.382;9.708;2023-06-22T14:39:48;29.00;63.50
60860;DHT22;46694;54.382;9.708;2023-06-22T14:42:28;29.00;63.80
60860;DHT22;46694;54.382;9.708;2023-06-22T14:45:09;29.00;64.00
60860;DHT22;46694;54.382;9.708;2023-06-22T14:47:49;28.80;64.10
60860;DHT22;46694;54.382;9.708;2023-06-22T14:50:28;28.70;64.50
60860;DHT22;46694;54.382;9.708;2023-06-22T14:53:07;28.60;64.60
60860;DHT22;46694;54.382;9.708;2023-06-22T14:55:47;28.40;64.90
60860;DHT22;46694;54.382;9.708;2023-06-22T14:58:27;28.40;65.30
60860;DHT22;46694;54.382;9.708;2023-06-22T15:01:12;28.40;65.30
60860;DHT22;46694;54.382;9.708;2023-06-22T15:03:52;28.40;65.30
60860;DHT22;46694;54.382;9.708;2023-06-22T15:06:31;28.50;65.30
60860;DHT22;46694;54.382;9.708;2023-06-22T15:09:11;28.50;64.90
60860;DHT22;46694;54.382;9.708;2023-06-22T15:11:51;28.30;64.80
60860;DHT22;46694;54.382;9.708;2023-06-22T15:14:30;28.30;65.30
60860;DHT22;46694;54.382;9.708;2023-06-22T15:17:10;28.30;65.80
60860;DHT22;46694;54.382;9.708;2023-06-22T15:19:49;28.40;65.70
60860;DHT22;46694;54.382;9.708;2023-06-22T15:22:29;28.50;65.30
60860;DHT22;46694;54.382;9.708;2023-06-22T15:25:10;28.40;65.20
60860;DHT22;46694;54.382;9.708;2023-06-22T15:27:50;28.20;65.20
60860;DHT22;46694;54.382;9.708;2023-06-22T15:30:29;28.00;65.40
60860;DHT22;46694;54.382;9.708;2023-06-22T15:33:09;27.80;65.40
60860;DHT22;46694;54.382;9.708;2023-06-22T15:35:49;27.70;65.40
60860;DHT22;46694;54.382;9.708;2023-06-22T15:38:29;27.50;65.40
60860;DHT22;46694;54.382;9.708;2023-06-22T15:41:09;27.40;65.70
60860;DHT22;46694;54.382;9.708;2023-06-22T15:43:49;27.30;65.90
60860;DHT22;46694;54.382;9.708;2023-06-22T15:46:29;27.20;66.10
60860;DHT22;46694;54.382;9.708;2023-06-22T15:49:08;27.20;66.40
60860;DHT22;46694;54.382;9.708;2023-06-22T15:51:48;27.30;66.80
60860;DHT22;46694;54.382;9.708;2023-06-22T15:54:28;27.40;66.90
60860;DHT22;46694;54.382;9.708;2023-06-22T15:57:07;27.40;66.90
60860;DHT22;46694;54.382;9.708;2023-06-22T15:59:47;27.50;67.00
60860;DHT22;46694;54.382;9.708;2023-06-22T16:02:26;27.50;67.10
60860;DHT22;46694;54.382;9.708;2023-06-22T16:05:07;27.50;67.20
60860;DHT22;46694;54.382;9.708;2023-06-22T16:07:48;27.40;67.40
60860;DHT22;46694;54.382;9.708;2023-06-22T16:10:28;27.20;67.70
60860;DHT22;46694;54.382;9.708;2023-06-22T16:13:08;27.10;67.90
60860;DHT22;46694;54.382;9.708;2023-06-22T16:15:47;27.00;68.10
60860;DHT22;46694;54.382;9.708;2023-06-22T16:18:27;27.00;68.20
60860;DHT22;46694;54.382;9.708;2023-06-22T16:21:06;27.00;68.40
60860;DHT22;46694;54.382;9.708;2023-06-22T16:23:46;27.00;68.40
60860;DHT22;46694;54.382;9.708;2023-06-22T16:26:25;26.90;68.30
60860;DHT22;46694;54.382;9.708;2023-06-22T16:29:06;26.60;68.20
60860;DHT22;46694;54.382;9.708;2023-06-22T16:31:45;26.50;68.50
60860;DHT22;46694;54.382;9.708;2023-06-22T16:34:25;26.40;68.80
60860;DHT22;46694;54.382;9.708;2023-06-22T16:37:05;26.30;69.20
60860;DHT22;46694;54.382;9.708;2023-06-22T16:39:44;26.10;69.20
60860;DHT22;46694;54.382;9.708;2023-06-22T16:42:23;25.90;69.30
60860;DHT22;46694;54.382;9.708;2023-06-22T16:45:03;25.90;69.50
60860;DHT22;46694;54.382;9.708;2023-06-22T16:47:48;25.80;69.40
60860;DHT22;46694;54.382;9.708;2023-06-22T16:50:29;25.70;69.20
60860;DHT22;46694;54.382;9.708;2023-06-22T16:53:09;25.60;69.50
60860;DHT22;46694;54.382;9.708;2023-06-22T16:55:49;25.50;69.80
60860;DHT22;46694;54.382;9.708;2023-06-22T16:58:29;25.50;70.10
60860;DHT22;46694;54.382;9.708;2023-06-22T17:01:10;25.40;70.20